METAR AND TAF INFORMATION
METAR FOR MYGF
ADDS - METARS form results

(0910 UTC 21 January 2019)
Data provider http://aviationweather.gov/metar/data/
 
Forecast for: MYGF (FREEPORT INTL A , BS)
Text: TAF MYGF 210430Z 2106/2206 34025KT 9999 SCT040
Forecast period: 0600 UTC 21 January 2019 to 0600 UTC 22 January 2019
Forecast type: FROM: standard forecast or significant change
Winds: from the NNW (340 degrees) at 29 MPH (25 knots; 12.9 m/s)
Visibility: 6 or more miles 10+ km)
Ceiling: at least 12,000 feet AGL
Clouds: scattered clouds at 4000 feet AGL
Weather: no significant weather forecast for this period

 AIRPORT MAP

 RUNWAY INFORMATION

 AIRPORT FREQUENCIES
Type APP Name APP Frequency 126.5 MHZ
Type GND Name GND Frequency 121.7 MHZ
Type TWR Name TWR Frequency 118.5 MHZ

 AIRPORT NEAR NAVIGATION AIDS
Type VOR-DME Name Freeport Frequency 113200 KHZ
Type NDB Name Freeport Frequency 209 KHZ



Powered by Virtual Airlines Manager [v2.6.2]